sensor_id;sensor_type;location;lat;lon;timestamp;pressure;altitude;pressure_sealevel;temperature;humidity
16544;BME280;8384;47.996;7.786;2023-05-10T00:01:20;98349.00;;;12.66;100.00
16544;BME280;8384;47.996;7.786;2023-05-10T00:03:45;98300.81;;;12.14;100.00
16544;BME280;8384;47.996;7.786;2023-05-10T00:06:11;98359.44;;;12.64;100.00
16544;BME280;8384;47.996;7.786;2023-05-10T00:08:37;98346.69;;;12.43;100.00
16544;BME280;8384;47.996;7.786;2023-05-10T00:11:02;98347.25;;;12.40;100.00
16544;BME280;8384;47.996;7.786;2023-05-10T00:13:27;98344.84;;;12.28;100.00
16544;BME280;8384;47.996;7.786;2023-05-10T00:15:53;98360.13;;;12.40;100.00
16544;BME280;8384;47.996;7.786;2023-05-10T00:18:18;98356.50;;;12.50;100.00
16544;BME280;8384;47.996;7.786;2023-05-10T00:20:43;98348.81;;;12.52;100.00
16544;BME280;8384;47.996;7.786;2023-05-10T00:23:11;98360.03;;;12.55;100.00
16544;BME280;8384;47.996;7.786;2023-05-10T00:25:36;98343.31;;;12.57;100.00
16544;BME280;8384;47.996;7.786;2023-05-10T00:28:01;98349.66;;;12.47;100.00
16544;BME280;8384;47.996;7.786;2023-05-10T00:30:27;98356.28;;;12.41;100.00
16544;BME280;8384;47.996;7.786;2023-05-10T00:32:52;98333.84;;;12.34;100.00
16544;BME280;8384;47.996;7.786;2023-05-10T00:35:17;98335.25;;;12.26;100.00
16544;BME280;8384;47.996;7.786;2023-05-10T00:37:43;98322.16;;;12.18;100.00
16544;BME280;8384;47.996;7.786;2023-05-10T00:40:08;98329.41;;;12.43;100.00
16544;BME280;8384;47.996;7.786;2023-05-10T00:42:33;98341.28;;;12.28;100.00
16544;BME280;8384;47.996;7.786;2023-05-10T00:44:59;98326.78;;;12.22;100.00
16544;BME280;8384;47.996;7.786;2023-05-10T00:47:24;98344.25;;;12.32;100.00
16544;BME280;8384;47.996;7.786;2023-05-10T00:49:49;98323.19;;;12.27;100.00
16544;BME280;8384;47.996;7.786;2023-05-10T00:52:15;98343.34;;;12.47;100.00
16544;BME280;8384;47.996;7.786;2023-05-10T00:54:41;98332.81;;;12.24;100.00
16544;BME280;8384;47.996;7.786;2023-05-10T00:57:06;98350.56;;;12.32;100.00
16544;BME280;8384;47.996;7.786;2023-05-10T00:59:31;98336.13;;;12.21;100.00
16544;BME280;8384;47.996;7.786;2023-05-10T01:01:57;98347.53;;;12.39;100.00
16544;BME280;8384;47.996;7.786;2023-05-10T01:04:23;98353.50;;;12.46;100.00
16544;BME280;8384;47.996;7.786;2023-05-10T01:06:51;98347.88;;;12.22;100.00
16544;BME280;8384;47.996;7.786;2023-05-10T01:09:16;98324.91;;;12.18;100.00
16544;BME280;8384;47.996;7.786;2023-05-10T01:11:43;98350.47;;;12.48;100.00
16544;BME280;8384;47.996;7.786;2023-05-10T01:14:08;98353.50;;;12.46;100.00
16544;BME280;8384;47.996;7.786;2023-05-10T01:16:37;98346.97;;;12.37;100.00
16544;BME280;8384;47.996;7.786;2023-05-10T01:19:05;98346.84;;;12.12;100.00
16544;BME280;8384;47.996;7.786;2023-05-10T01:21:44;98344.34;;;12.16;100.00
16544;BME280;8384;47.996;7.786;2023-05-10T01:24:33;98347.06;;;12.21;100.00
16544;BME280;8384;47.996;7.786;2023-05-10T01:27:17;98349.88;;;12.06;100.00
16544;BME280;8384;47.996;7.786;2023-05-10T01:30:02;98368.13;;;12.26;100.00
16544;BME280;8384;47.996;7.786;2023-05-10T01:32:54;98368.44;;;12.24;100.00
16544;BME280;8384;47.996;7.786;2023-05-10T01:36:01;98354.38;;;12.41;100.00
16544;BME280;8384;47.996;7.786;2023-05-10T01:38:35;98331.81;;;12.05;100.00
16544;BME280;8384;47.996;7.786;2023-05-10T01:41:18;98335.66;;;11.98;100.00
16544;BME280;8384;47.996;7.786;2023-05-10T01:44:17;98357.97;;;12.32;100.00
16544;BME280;8384;47.996;7.786;2023-05-10T01:46:48;98352.47;;;12.32;100.00
16544;BME280;8384;47.996;7.786;2023-05-10T01:49:30;98359.03;;;12.41;100.00
16544;BME280;8384;47.996;7.786;2023-05-10T01:52:00;98362.09;;;12.34;100.00
16544;BME280;8384;47.996;7.786;2023-05-10T01:54:29;98373.50;;;12.47;100.00
16544;BME280;8384;47.996;7.786;2023-05-10T01:57:00;98362.88;;;12.35;100.00
16544;BME280;8384;47.996;7.786;2023-05-10T01:59:30;98364.81;;;12.39;100.00
16544;BME280;8384;47.996;7.786;2023-05-10T02:02:01;98368.88;;;12.42;100.00
16544;BME280;8384;47.996;7.786;2023-05-10T02:04:28;98348.69;;;12.27;100.00
16544;BME280;8384;47.996;7.786;2023-05-10T02:06:54;98336.22;;;11.90;100.00
16544;BME280;8384;47.996;7.786;2023-05-10T02:09:21;98373.97;;;12.09;100.00
16544;BME280;8384;47.996;7.786;2023-05-10T02:11:47;98369.75;;;12.37;100.00
16544;BME280;8384;47.996;7.786;2023-05-10T02:14:15;98368.50;;;12.09;100.00
16544;BME280;8384;47.996;7.786;2023-05-10T02:16:42;98386.53;;;12.25;100.00
16544;BME280;8384;47.996;7.786;2023-05-10T02:19:08;98378.66;;;12.03;100.00
16544;BME280;8384;47.996;7.786;2023-05-10T02:21:35;98393.91;;;12.25;100.00
16544;BME280;8384;47.996;7.786;2023-05-10T02:24:03;98394.53;;;12.06;100.00
16544;BME280;8384;47.996;7.786;2023-05-10T02:26:29;98375.28;;;12.22;100.00
16544;BME280;8384;47.996;7.786;2023-05-10T02:28:57;98394.22;;;12.13;100.00
16544;BME280;8384;47.996;7.786;2023-05-10T02:31:24;98392.00;;;12.25;100.00
16544;BME280;8384;47.996;7.786;2023-05-10T02:33:50;98396.66;;;12.20;100.00
16544;BME280;8384;47.996;7.786;2023-05-10T02:36:16;98392.25;;;12.29;100.00
16544;BME280;8384;47.996;7.786;2023-05-10T02:38:44;98392.25;;;12.29;100.00
16544;BME280;8384;47.996;7.786;2023-05-10T02:41:11;98392.25;;;12.24;100.00
16544;BME280;8384;47.996;7.786;2023-05-10T02:43:37;98388.72;;;12.23;100.00
16544;BME280;8384;47.996;7.786;2023-05-10T02:46:03;98385.13;;;12.28;100.00
16544;BME280;8384;47.996;7.786;2023-05-10T02:48:28;98399.28;;;12.45;100.00
16544;BME280;8384;47.996;7.786;2023-05-10T02:50:56;98396.84;;;12.39;100.00
16544;BME280;8384;47.996;7.786;2023-05-10T02:53:31;98390.63;;;12.23;100.00
16544;BME280;8384;47.996;7.786;2023-05-10T02:55:59;98389.53;;;12.24;100.00
16544;BME280;8384;47.996;7.786;2023-05-10T02:58:25;98390.34;;;12.29;100.00
16544;BME280;8384;47.996;7.786;2023-05-10T03:00:51;98395.88;;;12.09;100.00
16544;BME280;8384;47.996;7.786;2023-05-10T03:03:17;98400.56;;;12.08;100.00
16544;BME280;8384;47.996;7.786;2023-05-10T03:05:42;98393.66;;;12.16;100.00
16544;BME280;8384;47.996;7.786;2023-05-10T03:08:07;98398.09;;;12.07;100.00
16544;BME280;8384;47.996;7.786;2023-05-10T03:10:39;98396.91;;;12.28;100.00
16544;BME280;8384;47.996;7.786;2023-05-10T03:13:13;98395.28;;;12.22;100.00
16544;BME280;8384;47.996;7.786;2023-05-10T03:18:34;98388.50;;;12.09;100.00
16544;BME280;8384;47.996;7.786;2023-05-10T03:21:03;98376.22;;;12.02;100.00
16544;BME280;8384;47.996;7.786;2023-05-10T03:23:51;98404.94;;;12.04;100.00
16544;BME280;8384;47.996;7.786;2023-05-10T03:26:25;98404.06;;;12.19;100.00
16544;BME280;8384;47.996;7.786;2023-05-10T03:28:52;98395.88;;;12.14;100.00
16544;BME280;8384;47.996;7.786;2023-05-10T03:31:18;98411.50;;;11.98;100.00
16544;BME280;8384;47.996;7.786;2023-05-10T03:33:50;98415.63;;;12.06;100.00
16544;BME280;8384;47.996;7.786;2023-05-10T03:36:16;98385.28;;;11.81;100.00
16544;BME280;8384;47.996;7.786;2023-05-10T03:38:41;98410.41;;;11.94;100.00
16544;BME280;8384;47.996;7.786;2023-05-10T03:41:07;98406.34;;;12.02;100.00
16544;BME280;8384;47.996;7.786;2023-05-10T03:43:32;98401.41;;;11.88;100.00
16544;BME280;8384;47.996;7.786;2023-05-10T03:45:57;98398.97;;;11.81;100.00
16544;BME280;8384;47.996;7.786;2023-05-10T03:48:22;98412.06;;;11.95;100.00
16544;BME280;8384;47.996;7.786;2023-05-10T03:50:48;98403.31;;;12.03;100.00
16544;BME280;8384;47.996;7.786;2023-05-10T03:53:14;98398.09;;;11.96;100.00
16544;BME280;8384;47.996;7.786;2023-05-10T03:55:40;98384.41;;;11.91;100.00
16544;BME280;8384;47.996;7.786;2023-05-10T03:58:05;98398.38;;;11.95;100.00
16544;BME280;8384;47.996;7.786;2023-05-10T04:00:30;98392.66;;;12.02;100.00
16544;BME280;8384;47.996;7.786;2023-05-10T04:02:56;98384.97;;;11.93;100.00
16544;BME280;8384;47.996;7.786;2023-05-10T04:05:22;98405.50;;;12.06;100.00
16544;BME280;8384;47.996;7.786;2023-05-10T04:07:47;98400.00;;;11.96;100.00
16544;BME280;8384;47.996;7.786;2023-05-10T04:10:14;98409.34;;;12.00;100.00
16544;BME280;8384;47.996;7.786;2023-05-10T04:12:41;98390.50;;;11.67;100.00
16544;BME280;8384;47.996;7.786;2023-05-10T04:15:07;98406.91;;;11.83;100.00
16544;BME280;8384;47.996;7.786;2023-05-10T04:17:32;98403.88;;;11.90;100.00
16544;BME280;8384;47.996;7.786;2023-05-10T04:19:57;98404.19;;;11.78;100.00
16544;BME280;8384;47.996;7.786;2023-05-10T04:22:23;98421.41;;;11.89;100.00
16544;BME280;8384;47.996;7.786;2023-05-10T04:24:48;98411.31;;;11.63;100.00
16544;BME280;8384;47.996;7.786;2023-05-10T04:27:13;98416.47;;;11.91;100.00
16544;BME280;8384;47.996;7.786;2023-05-10T04:29:39;98421.72;;;11.77;100.00
16544;BME280;8384;47.996;7.786;2023-05-10T04:32:04;98369.47;;;11.58;100.00
16544;BME280;8384;47.996;7.786;2023-05-10T04:34:29;98412.94;;;11.80;100.00
16544;BME280;8384;47.996;7.786;2023-05-10T04:36:55;98405.78;;;11.89;100.00
16544;BME280;8384;47.996;7.786;2023-05-10T04:39:20;98414.84;;;11.84;100.00
16544;BME280;8384;47.996;7.786;2023-05-10T04:41:45;98410.47;;;11.73;100.00
16544;BME280;8384;47.996;7.786;2023-05-10T04:44:11;98413.50;;;11.77;100.00
16544;BME280;8384;47.996;7.786;2023-05-10T04:46:36;98426.34;;;11.81;100.00
16544;BME280;8384;47.996;7.786;2023-05-10T04:49:01;98431.28;;;11.84;100.00
16544;BME280;8384;47.996;7.786;2023-05-10T04:51:26;98405.56;;;11.75;100.00
16544;BME280;8384;47.996;7.786;2023-05-10T04:53:52;98410.78;;;11.56;100.00
16544;BME280;8384;47.996;7.786;2023-05-10T04:56:17;98430.50;;;11.63;100.00
16544;BME280;8384;47.996;7.786;2023-05-10T04:58:42;98425.78;;;11.90;100.00
16544;BME280;8384;47.996;7.786;2023-05-10T05:01:08;98431.28;;;11.90;100.00
16544;BME280;8384;47.996;7.786;2023-05-10T05:03:36;98429.09;;;11.87;100.00
16544;BME280;8384;47.996;7.786;2023-05-10T05:06:02;98427.69;;;11.94;100.00
16544;BME280;8384;47.996;7.786;2023-05-10T05:08:27;98426.06;;;11.88;100.00
16544;BME280;8384;47.996;7.786;2023-05-10T05:10:52;98400.38;;;11.68;100.00
16544;BME280;8384;47.996;7.786;2023-05-10T05:13:18;98444.97;;;12.00;100.00
16544;BME280;8384;47.996;7.786;2023-05-10T05:15:43;98439.25;;;11.76;100.00
16544;BME280;8384;47.996;7.786;2023-05-10T05:18:08;98438.94;;;11.82;100.00
16544;BME280;8384;47.996;7.786;2023-05-10T05:20:34;98442.00;;;11.65;100.00
16544;BME280;8384;47.996;7.786;2023-05-10T05:23:00;98414.31;;;11.77;100.00
16544;BME280;8384;47.996;7.786;2023-05-10T05:25:25;98452.91;;;12.02;100.00
16544;BME280;8384;47.996;7.786;2023-05-10T05:27:50;98456.16;;;11.98;100.00
16544;BME280;8384;47.996;7.786;2023-05-10T05:30:15;98458.94;;;11.83;100.00
16544;BME280;8384;47.996;7.786;2023-05-10T05:32:41;98453.97;;;11.95;100.00
16544;BME280;8384;47.996;7.786;2023-05-10T05:35:06;98454.00;;;11.90;100.00
16544;BME280;8384;47.996;7.786;2023-05-10T05:37:32;98443.63;;;11.61;100.00
16544;BME280;8384;47.996;7.786;2023-05-10T05:39:57;98465.50;;;11.87;100.00
16544;BME280;8384;47.996;7.786;2023-05-10T05:42:22;98467.13;;;11.93;100.00
16544;BME280;8384;47.996;7.786;2023-05-10T05:44:48;98455.69;;;11.70;100.00
16544;BME280;8384;47.996;7.786;2023-05-10T05:47:13;98456.22;;;11.73;100.00
16544;BME280;8384;47.996;7.786;2023-05-10T05:49:38;98468.53;;;11.70;100.00
16544;BME280;8384;47.996;7.786;2023-05-10T05:52:04;98467.16;;;11.57;100.00
16544;BME280;8384;47.996;7.786;2023-05-10T05:54:30;98474.00;;;11.70;100.00
16544;BME280;8384;47.996;7.786;2023-05-10T05:56:57;98473.16;;;11.85;100.00
16544;BME280;8384;47.996;7.786;2023-05-10T05:59:23;98480.88;;;11.78;100.00
16544;BME280;8384;47.996;7.786;2023-05-10T06:01:48;98477.84;;;11.74;100.00
16544;BME280;8384;47.996;7.786;2023-05-10T06:04:14;98485.25;;;11.74;100.00
16544;BME280;8384;47.996;7.786;2023-05-10T06:06:39;98492.09;;;11.55;100.00
16544;BME280;8384;47.996;7.786;2023-05-10T06:09:04;98494.28;;;11.64;100.00
16544;BME280;8384;47.996;7.786;2023-05-10T06:11:30;98495.66;;;11.66;100.00
16544;BME280;8384;47.996;7.786;2023-05-10T06:13:57;98498.94;;;11.68;100.00
16544;BME280;8384;47.996;7.786;2023-05-10T06:16:22;98500.88;;;11.63;100.00
16544;BME280;8384;47.996;7.786;2023-05-10T06:18:48;98496.75;;;11.70;100.00
16544;BME280;8384;47.996;7.786;2023-05-10T06:21:13;98500.03;;;11.67;100.00
16544;BME280;8384;47.996;7.786;2023-05-10T06:23:39;98507.97;;;11.84;100.00
16544;BME280;8384;47.996;7.786;2023-05-10T06:26:05;98497.56;;;11.76;100.00
16544;BME280;8384;47.996;7.786;2023-05-10T06:28:30;98506.56;;;11.97;100.00
16544;BME280;8384;47.996;7.786;2023-05-10T06:30:57;98520.28;;;12.03;100.00
16544;BME280;8384;47.996;7.786;2023-05-10T06:33:22;98512.06;;;11.82;100.00
16544;BME280;8384;47.996;7.786;2023-05-10T06:35:47;98506.03;;;11.54;100.00
16544;BME280;8384;47.996;7.786;2023-05-10T06:38:13;98502.50;;;11.59;100.00
16544;BME280;8384;47.996;7.786;2023-05-10T06:40:41;98508.78;;;11.54;100.00
16544;BME280;8384;47.996;7.786;2023-05-10T06:43:07;98521.13;;;11.62;100.00
16544;BME280;8384;47.996;7.786;2023-05-10T06:45:32;98512.63;;;11.63;100.00
16544;BME280;8384;47.996;7.786;2023-05-10T06:47:57;98514.81;;;11.72;100.00
16544;BME280;8384;47.996;7.786;2023-05-10T06:50:22;98466.94;;;11.38;100.00
16544;BME280;8384;47.996;7.786;2023-05-10T06:52:48;98524.09;;;11.96;100.00
16544;BME280;8384;47.996;7.786;2023-05-10T06:55:13;98522.19;;;11.87;100.00
16544;BME280;8384;47.996;7.786;2023-05-10T06:57:38;98526.00;;;11.96;100.00
16544;BME280;8384;47.996;7.786;2023-05-10T07:00:04;98529.59;;;12.02;100.00
16544;BME280;8384;47.996;7.786;2023-05-10T07:02:30;98535.09;;;12.02;100.00
16544;BME280;8384;47.996;7.786;2023-05-10T07:04:55;98533.97;;;11.97;100.00
16544;BME280;8384;47.996;7.786;2023-05-10T07:07:21;98533.13;;;11.97;100.00
16544;BME280;8384;47.996;7.786;2023-05-10T07:09:47;98544.06;;;12.33;100.00
16544;BME280;8384;47.996;7.786;2023-05-10T07:12:12;98527.91;;;12.26;100.00
16544;BME280;8384;47.996;7.786;2023-05-10T07:14:37;98539.69;;;12.32;100.00
16544;BME280;8384;47.996;7.786;2023-05-10T07:17:03;98549.56;;;12.28;100.00
16544;BME280;8384;47.996;7.786;2023-05-10T07:19:28;98549.31;;;12.14;100.00
16544;BME280;8384;47.996;7.786;2023-05-10T07:21:54;98535.03;;;12.22;100.00
16544;BME280;8384;47.996;7.786;2023-05-10T07:24:20;98550.66;;;12.27;100.00
16544;BME280;8384;47.996;7.786;2023-05-10T07:26:45;98551.47;;;12.27;100.00
16544;BME280;8384;47.996;7.786;2023-05-10T07:29:11;98533.16;;;12.12;100.00
16544;BME280;8384;47.996;7.786;2023-05-10T07:31:36;98542.34;;;12.53;100.00
16544;BME280;8384;47.996;7.786;2023-05-10T07:34:02;98551.09;;;12.70;100.00
16544;BME280;8384;47.996;7.786;2023-05-10T07:36:27;98551.81;;;12.92;100.00
16544;BME280;8384;47.996;7.786;2023-05-10T07:38:52;98560.03;;;12.86;100.00
16544;BME280;8384;47.996;7.786;2023-05-10T07:41:18;98555.53;;;13.11;100.00
16544;BME280;8384;47.996;7.786;2023-05-10T07:43:43;98550.88;;;13.62;100.00
16544;BME280;8384;47.996;7.786;2023-05-10T07:46:08;98555.19;;;13.68;100.00
16544;BME280;8384;47.996;7.786;2023-05-10T07:48:36;98551.63;;;14.02;97.51
16544;BME280;8384;47.996;7.786;2023-05-10T07:51:02;98541.44;;;14.32;94.86
16544;BME280;8384;47.996;7.786;2023-05-10T07:53:27;98550.53;;;14.03;97.75
16544;BME280;8384;47.996;7.786;2023-05-10T07:55:58;98544.34;;;13.87;100.00
16544;BME280;8384;47.996;7.786;2023-05-10T07:58:24;98557.47;;;13.95;97.06
16544;BME280;8384;47.996;7.786;2023-05-10T08:00:50;98565.59;;;13.76;94.76
16544;BME280;8384;47.996;7.786;2023-05-10T08:03:15;98545.38;;;13.97;95.06
16544;BME280;8384;47.996;7.786;2023-05-10T08:05:40;98547.75;;;14.33;91.92
16544;BME280;8384;47.996;7.786;2023-05-10T08:08:06;98545.59;;;14.30;92.87
16544;BME280;8384;47.996;7.786;2023-05-10T08:10:31;98541.13;;;14.34;89.33
16544;BME280;8384;47.996;7.786;2023-05-10T08:12:56;98552.53;;;14.51;90.25
16544;BME280;8384;47.996;7.786;2023-05-10T08:15:24;98537.97;;;14.46;88.74
16544;BME280;8384;47.996;7.786;2023-05-10T08:17:49;98551.59;;;14.32;88.25
16544;BME280;8384;47.996;7.786;2023-05-10T08:20:15;98546.75;;;14.48;86.92
16544;BME280;8384;47.996;7.786;2023-05-10T08:22:44;98542.56;;;14.55;85.91
16544;BME280;8384;47.996;7.786;2023-05-10T08:25:10;98535.81;;;14.72;86.95
16544;BME280;8384;47.996;7.786;2023-05-10T08:27:35;98544.63;;;15.32;86.01
16544;BME280;8384;47.996;7.786;2023-05-10T08:30:00;98537.94;;;15.38;79.26
16544;BME280;8384;47.996;7.786;2023-05-10T08:32:26;98535.69;;;15.02;81.71
16544;BME280;8384;47.996;7.786;2023-05-10T08:34:51;98542.63;;;15.18;82.19
16544;BME280;8384;47.996;7.786;2023-05-10T08:37:16;98499.47;;;14.46;82.56
16544;BME280;8384;47.996;7.786;2023-05-10T08:39:41;98547.03;;;15.19;81.06
16544;BME280;8384;47.996;7.786;2023-05-10T08:42:07;98519.63;;;15.28;82.18
16544;BME280;8384;47.996;7.786;2023-05-10T08:44:35;98546.91;;;16.01;79.05
16544;BME280;8384;47.996;7.786;2023-05-10T08:47:06;98529.94;;;15.94;75.95
16544;BME280;8384;47.996;7.786;2023-05-10T08:49:32;98538.63;;;16.01;75.51
16544;BME280;8384;47.996;7.786;2023-05-10T08:52:02;98537.16;;;16.51;74.13
16544;BME280;8384;47.996;7.786;2023-05-10T08:54:28;98529.75;;;15.13;76.65
16544;BME280;8384;47.996;7.786;2023-05-10T08:56:55;98530.34;;;15.49;74.41
16544;BME280;8384;47.996;7.786;2023-05-10T08:59:21;98507.97;;;15.69;72.28
16544;BME280;8384;47.996;7.786;2023-05-10T09:01:46;98534.31;;;15.95;71.26
16544;BME280;8384;47.996;7.786;2023-05-10T09:04:14;98542.03;;;16.26;72.73
16544;BME280;8384;47.996;7.786;2023-05-10T09:06:39;98541.13;;;15.07;74.49
16544;BME280;8384;47.996;7.786;2023-05-10T09:09:05;98542.72;;;14.89;76.92
16544;BME280;8384;47.996;7.786;2023-05-10T09:11:30;98556.56;;;15.27;73.29
16544;BME280;8384;47.996;7.786;2023-05-10T09:13:56;98554.31;;;15.10;75.29
16544;BME280;8384;47.996;7.786;2023-05-10T09:16:22;98531.31;;;15.39;75.48
16544;BME280;8384;47.996;7.786;2023-05-10T09:18:47;98567.66;;;15.60;71.21
16544;BME280;8384;47.996;7.786;2023-05-10T09:21:14;98566.97;;;16.34;69.41
16544;BME280;8384;47.996;7.786;2023-05-10T09:23:43;98562.00;;;15.84;69.39
16544;BME280;8384;47.996;7.786;2023-05-10T09:26:08;98574.28;;;16.11;65.00
16544;BME280;8384;47.996;7.786;2023-05-10T09:28:34;98570.50;;;16.21;65.27
16544;BME280;8384;47.996;7.786;2023-05-10T09:31:14;98571.91;;;15.85;62.42
16544;BME280;8384;47.996;7.786;2023-05-10T09:33:49;98591.66;;;16.12;58.87
16544;BME280;8384;47.996;7.786;2023-05-10T09:36:15;98599.19;;;16.53;58.67
16544;BME280;8384;47.996;7.786;2023-05-10T09:38:48;98610.03;;;16.16;55.23
16544;BME280;8384;47.996;7.786;2023-05-10T09:41:23;98459.44;;;15.54;56.53
16544;BME280;8384;47.996;7.786;2023-05-10T09:43:49;98478.81;;;15.82;54.04
16544;BME280;8384;47.996;7.786;2023-05-10T09:46:15;98569.63;;;16.26;51.76
16544;BME280;8384;47.996;7.786;2023-05-10T09:48:45;98535.34;;;15.99;51.93
16544;BME280;8384;47.996;7.786;2023-05-10T09:51:27;98525.19;;;16.27;51.63
16544;BME280;8384;47.996;7.786;2023-05-10T09:54:15;98613.47;;;16.41;50.27
16544;BME280;8384;47.996;7.786;2023-05-10T09:56:41;98486.88;;;16.12;52.08
16544;BME280;8384;47.996;7.786;2023-05-10T09:59:10;98569.16;;;16.66;49.76
16544;BME280;8384;47.996;7.786;2023-05-10T10:01:36;98495.31;;;15.35;51.52
16544;BME280;8384;47.996;7.786;2023-05-10T10:04:09;98515.94;;;15.71;50.23
16544;BME280;8384;47.996;7.786;2023-05-10T10:06:40;98561.50;;;15.82;49.78
16544;BME280;8384;47.996;7.786;2023-05-10T10:09:07;98610.31;;;16.62;50.36
16544;BME280;8384;47.996;7.786;2023-05-10T10:11:44;98607.06;;;16.60;51.10
16544;BME280;8384;47.996;7.786;2023-05-10T10:14:12;98515.63;;;15.72;52.59
16544;BME280;8384;47.996;7.786;2023-05-10T10:16:37;98604.44;;;16.97;51.92
16544;BME280;8384;47.996;7.786;2023-05-10T10:19:03;98594.53;;;17.60;49.02
16544;BME280;8384;47.996;7.786;2023-05-10T10:21:28;98602.44;;;17.53;48.56
16544;BME280;8384;47.996;7.786;2023-05-10T10:24:03;98513.50;;;17.51;48.71
16544;BME280;8384;47.996;7.786;2023-05-10T10:26:32;98564.31;;;17.64;47.68
16544;BME280;8384;47.996;7.786;2023-05-10T10:29:40;98631.09;;;16.73;47.46
16544;BME280;8384;47.996;7.786;2023-05-10T10:35:12;98603.75;;;17.56;45.20
16544;BME280;8384;47.996;7.786;2023-05-10T10:40:34;98596.72;;;16.38;49.37
16544;BME280;8384;47.996;7.786;2023-05-10T10:43:28;98611.53;;;16.42;51.50
16544;BME280;8384;47.996;7.786;2023-05-10T10:46:15;98602.06;;;16.76;52.50
16544;BME280;8384;47.996;7.786;2023-05-10T10:48:48;98467.34;;;15.94;52.21
16544;BME280;8384;47.996;7.786;2023-05-10T10:51:17;98536.44;;;15.65;51.26
16544;BME280;8384;47.996;7.786;2023-05-10T10:53:42;98600.25;;;15.91;52.23
16544;BME280;8384;47.996;7.786;2023-05-10T10:56:12;98567.63;;;16.59;51.56
16544;BME280;8384;47.996;7.786;2023-05-10T10:58:49;98601.44;;;16.51;49.86
16544;BME280;8384;47.996;7.786;2023-05-10T11:01:33;98602.28;;;16.93;48.00
16544;BME280;8384;47.996;7.786;2023-05-10T11:06:34;98591.66;;;17.15;48.00
16544;BME280;8384;47.996;7.786;2023-05-10T11:09:08;98550.97;;;16.64;49.36
16544;BME280;8384;47.996;7.786;2023-05-10T11:11:34;98597.97;;;16.59;49.41
16544;BME280;8384;47.996;7.786;2023-05-10T11:14:04;98597.75;;;16.09;50.42
16544;BME280;8384;47.996;7.786;2023-05-10T11:16:41;98588.84;;;16.59;51.49
16544;BME280;8384;47.996;7.786;2023-05-10T11:19:08;98526.03;;;16.42;48.34
16544;BME280;8384;47.996;7.786;2023-05-10T11:21:49;98472.16;;;16.02;48.59
16544;BME280;8384;47.996;7.786;2023-05-10T11:24:19;98591.22;;;16.04;50.02
16544;BME280;8384;47.996;7.786;2023-05-10T11:26:45;98592.75;;;16.72;50.54
16544;BME280;8384;47.996;7.786;2023-05-10T11:29:12;98606.09;;;16.37;48.83
16544;BME280;8384;47.996;7.786;2023-05-10T11:31:50;98604.72;;;15.49;51.55
16544;BME280;8384;47.996;7.786;2023-05-10T11:34:31;98556.97;;;15.92;51.15
16544;BME280;8384;47.996;7.786;2023-05-10T11:37:00;98493.88;;;15.38;52.08
16544;BME280;8384;47.996;7.786;2023-05-10T11:39:30;98543.03;;;16.02;51.18
16544;BME280;8384;47.996;7.786;2023-05-10T11:42:05;98539.50;;;16.43;50.21
16544;BME280;8384;47.996;7.786;2023-05-10T11:44:32;98518.81;;;15.27;51.99
16544;BME280;8384;47.996;7.786;2023-05-10T11:47:01;98582.94;;;15.85;53.47
16544;BME280;8384;47.996;7.786;2023-05-10T11:49:30;98539.72;;;15.86;51.49
16544;BME280;8384;47.996;7.786;2023-05-10T11:52:18;98578.69;;;15.93;51.78
16544;BME280;8384;47.996;7.786;2023-05-10T11:54:53;98565.84;;;15.88;49.58
16544;BME280;8384;47.996;7.786;2023-05-10T11:57:20;98505.69;;;15.57;49.33
16544;BME280;8384;47.996;7.786;2023-05-10T12:00:02;98581.91;;;15.81;48.71
16544;BME280;8384;47.996;7.786;2023-05-10T12:02:28;98487.03;;;15.35;48.04
16544;BME280;8384;47.996;7.786;2023-05-10T12:04:55;98535.47;;;15.55;48.28
16544;BME280;8384;47.996;7.786;2023-05-10T12:07:21;98396.09;;;14.88;48.29
16544;BME280;8384;47.996;7.786;2023-05-10T12:10:11;98564.50;;;15.67;48.33
16544;BME280;8384;47.996;7.786;2023-05-10T12:12:46;98471.06;;;14.99;48.25
16544;BME280;8384;47.996;7.786;2023-05-10T12:15:25;98456.22;;;14.76;48.53
16544;BME280;8384;47.996;7.786;2023-05-10T12:17:50;98517.53;;;15.20;47.45
16544;BME280;8384;47.996;7.786;2023-05-10T12:20:27;98551.63;;;15.05;50.54
16544;BME280;8384;47.996;7.786;2023-05-10T12:23:03;98447.16;;;14.07;53.93
16544;BME280;8384;47.996;7.786;2023-05-10T12:25:36;98507.63;;;14.56;57.67
16544;BME280;8384;47.996;7.786;2023-05-10T12:28:06;98586.06;;;15.02;55.92
16544;BME280;8384;47.996;7.786;2023-05-10T12:30:33;98540.94;;;14.01;60.09
16544;BME280;8384;47.996;7.786;2023-05-10T12:33:07;98536.63;;;13.89;62.74
16544;BME280;8384;47.996;7.786;2023-05-10T12:38:32;98608.94;;;13.34;74.03
16544;BME280;8384;47.996;7.786;2023-05-10T12:41:00;98521.84;;;12.35;77.62
16544;BME280;8384;47.996;7.786;2023-05-10T12:43:25;98600.53;;;13.15;76.47
16544;BME280;8384;47.996;7.786;2023-05-10T12:45:51;98489.94;;;12.65;80.63
16544;BME280;8384;47.996;7.786;2023-05-10T12:48:25;98516.84;;;13.13;79.39
16544;BME280;8384;47.996;7.786;2023-05-10T12:50:51;98504.41;;;13.26;77.03
16544;BME280;8384;47.996;7.786;2023-05-10T12:53:16;98572.19;;;13.25;78.21
16544;BME280;8384;47.996;7.786;2023-05-10T12:55:42;98629.25;;;13.89;76.48
16544;BME280;8384;47.996;7.786;2023-05-10T12:58:08;98475.66;;;13.18;77.41
16544;BME280;8384;47.996;7.786;2023-05-10T13:00:36;98543.00;;;13.50;70.91
16544;BME280;8384;47.996;7.786;2023-05-10T13:03:06;98555.38;;;13.42;75.99
16544;BME280;8384;47.996;7.786;2023-05-10T13:05:32;98606.97;;;13.90;74.66
16544;BME280;8384;47.996;7.786;2023-05-10T13:07:58;98559.28;;;13.76;74.23
16544;BME280;8384;47.996;7.786;2023-05-10T13:10:48;98608.03;;;14.24;71.79
16544;BME280;8384;47.996;7.786;2023-05-10T13:13:14;98584.56;;;13.73;70.97
16544;BME280;8384;47.996;7.786;2023-05-10T13:15:39;98513.47;;;13.26;70.93
16544;BME280;8384;47.996;7.786;2023-05-10T13:18:07;98549.97;;;13.27;71.06
16544;BME280;8384;47.996;7.786;2023-05-10T13:20:33;98524.44;;;13.26;72.54
16544;BME280;8384;47.996;7.786;2023-05-10T13:22:58;98560.63;;;13.33;74.28
16544;BME280;8384;47.996;7.786;2023-05-10T13:25:29;98457.78;;;12.75;74.96